| time (UTC) | temp C | wind direction | speed KPH | gust KPH | rain 1hr cm | rain 24hr cm | rain mn cm | humidity % | barometer mb |
| 20260502232003 | 16 | 196 | 9.7 | 17.7 | 0.00 | 0.00 | 0.00 | 48 | 1013.5 |
| 20260502231457 | 16 | 216 | 9.7 | 17.7 | 0.00 | 0.00 | 0.00 | 47 | 1013.6 |
| 20260502230944 | 16 | 185 | 11.3 | 16.1 | 0.00 | 0.00 | 0.00 | 48 | 1013.6 |
| 20260502230803 | 15 | 192 | 11.3 | 16.1 | 0.00 | 0.00 | 0.00 | 50 | 1013.6 |
| 20260502225940 | 15 | 174 | 9.7 | 17.7 | 0.00 | 0.00 | 0.00 | 52 | 1013.6 |
| 20260502225430 | 14 | 175 | 8.0 | 17.7 | 0.00 | 0.00 | 0.00 | 55 | 1013.7 |
| 20260502224931 | 14 | 178 | 6.4 | 11.3 | 0.00 | 0.00 | 0.00 | 55 | 1013.6 |
| 20260502224428 | 14 | 185 | 4.8 | 11.3 | 0.00 | 0.00 | 0.00 | 56 | 1013.7 |
| 20260502223929 | 14 | 198 | 3.2 | 8.0 | 0.00 | 0.00 | 0.00 | 56 | 1013.7 |
| 20260502223431 | 14 | 200 | 3.2 | 9.7 | 0.00 | 0.00 | 0.00 | 57 | 1013.7 |
| 20260502222931 | 14 | 207 | 4.8 | 16.1 | 0.00 | 0.00 | 0.00 | 57 | 1013.7 |
| 20260502222736 | 15 | 193 | 8.0 | 16.1 | 0.00 | 0.00 | 0.00 | 55 | 1013.7 |
| 20260502222231 | 14 | 187 | 6.4 | 11.3 | 0.00 | 0.00 | 0.00 | 57 | 1013.7 |
| 20260502221431 | 14 | 179 | 3.2 | 11.3 | 0.00 | 0.00 | 0.00 | 59 | 1013.7 |
| 20260502220930 | 14 | 171 | 1.6 | 9.7 | 0.00 | 0.00 | 0.00 | 60 | 1013.7 |
| 20260502220430 | 13 | 182 | 1.6 | 8.0 | 0.00 | 0.00 | 0.00 | 61 | 1013.7 |
| 20260502215928 | 13 | 182 | 3.2 | 9.7 | 0.00 | 0.00 | 0.00 | 62 | 1013.8 |
| 20260502215430 | 14 | 182 | 3.2 | 9.7 | 0.00 | 0.00 | 0.00 | 61 | 1013.7 |
| 20260502214929 | 14 | 182 | 3.2 | 9.7 | 0.00 | 0.00 | 0.00 | 59 | 1013.7 |
| 20260502214429 | 13 | 182 | 3.2 | 8.0 | 0.00 | 0.00 | 0.00 | 61 | 1013.7 |
| 20260502213930 | 13 | 182 | 1.6 | 8.0 | 0.00 | 0.00 | 0.00 | 66 | 1013.7 |
| 20260502213429 | 13 | 184 | 0.0 | 8.0 | 0.00 | 0.00 | 0.00 | 67 | 1013.7 |
| 20260502212930 | 13 | 186 | 0.0 | 3.2 | 0.00 | 0.00 | 0.00 | 67 | 1013.8 |
| 20260502212429 | 13 | 186 | 0.0 | 0.0 | 0.00 | 0.00 | 0.00 | 67 | 1013.7 |
| 20260502211929 | 13 | 186 | 0.0 | 0.0 | 0.00 | 0.00 | 0.00 | 67 | 1013.8 |
| 20260502211721 | 13 | 186 | 0.0 | 0.0 | 0.00 | 0.00 | 0.00 | 67 | 1013.7 |
| 20260502210931 | 13 | 186 | 0.0 | 0.0 | 0.00 | 0.00 | 0.00 | 65 | 1013.7 |
| 20260502210430 | 13 | 186 | 0.0 | 0.0 | 0.00 | 0.00 | 0.00 | 65 | 1013.7 |
| 20260502210226 | 13 | 186 | 0.0 | 0.0 | 0.00 | 0.00 | 0.00 | 66 | 1013.7 |
| 20260502205430 | 14 | 186 | 0.0 | 0.0 | 0.00 | 0.00 | 0.00 | 65 | 1013.7 |
| 20260502204930 | 14 | 186 | 0.0 | 0.0 | 0.00 | 0.00 | 0.00 | 64 | 1013.7 |
| 20260502204429 | 14 | 186 | 0.0 | 0.0 | 0.00 | 0.00 | 0.00 | 63 | 1013.8 |
| 20260502203929 | 15 | 186 | 0.0 | 0.0 | 0.00 | 0.00 | 0.00 | 61 | 1013.8 |
| 20260502203428 | 15 | 186 | 0.0 | 0.0 | 0.00 | 0.00 | 0.00 | 63 | 1013.8 |
| 20260502202931 | 15 | 186 | 0.0 | 0.0 | 0.00 | 0.00 | 0.00 | 61 | 1013.8 |
| 20260502202431 | 15 | 186 | 0.0 | 0.0 | 0.00 | 0.00 | 0.00 | 61 | 1013.8 |
| 20260502201927 | 15 | 186 | 0.0 | 0.0 | 0.00 | 0.00 | 0.00 | 61 | 1014.0 |
| 20260502201414 | 15 | 186 | 0.0 | 0.0 | 0.00 | 0.00 | 0.00 | 60 | 1014.0 |
| 20260502200904 | 16 | 186 | 0.0 | 0.0 | 0.00 | 0.00 | 0.00 | 59 | 1014.1 |
| 20260502200406 | 16 | 186 | 0.0 | 0.0 | 0.00 | 0.00 | 0.00 | 57 | 1014.1 |
| 20260502195903 | 16 | 186 | 0.0 | 0.0 | 0.00 | 0.00 | 0.00 | 55 | 1014.0 |
| 20260502195402 | 16 | 186 | 0.0 | 0.0 | 0.00 | 0.00 | 0.00 | 54 | 1014.0 |
| 20260502194906 | 17 | 186 | 0.0 | 0.0 | 0.00 | 0.00 | 0.00 | 52 | 1014.0 |
| 20260502194401 | 17 | 186 | 0.0 | 6.4 | 0.00 | 0.00 | 0.00 | 48 | 1013.8 |
| 20260502193901 | 18 | 186 | 0.0 | 6.4 | 0.00 | 0.00 | 0.00 | 45 | 1013.7 |
| 20260502193656 | 18 | 186 | 1.6 | 8.0 | 0.00 | 0.00 | 0.00 | 43 | 1013.7 |
| 20260502192901 | 19 | 186 | 3.2 | 8.0 | 0.00 | 0.00 | 0.00 | 42 | 1013.8 |
| 20260502192401 | 19 | 186 | 3.2 | 8.0 | 0.00 | 0.00 | 0.00 | 40 | 1013.7 |
| 20260502191901 | 20 | 186 | 4.8 | 8.0 | 0.00 | 0.00 | 0.00 | 39 | 1013.7 |
| 20260502191511 | 20 | 186 | 4.8 | 11.3 | 0.00 | 0.00 | 0.00 | 37 | 1013.6 |
| 20260502191443 | 20 | 186 | 4.8 | 11.3 | 0.00 | 0.00 | 0.00 | 37 | 1013.6 |
| 20260502190401 | 21 | 175 | 6.4 | 12.9 | 0.00 | 0.00 | 0.00 | 35 | 1013.6 |
| 20260502190202 | 21 | 188 | 4.8 | 12.9 | 0.00 | 0.00 | 0.00 | 35 | 1013.6 |
| 20260502185402 | 21 | 183 | 4.8 | 11.3 | 0.00 | 0.00 | 0.00 | 35 | 1013.5 |
| 20260502185158 | 21 | 183 | 4.8 | 12.9 | 0.00 | 0.00 | 0.00 | 34 | 1013.5 |
| 20260502184404 | 21 | 178 | 6.4 | 12.9 | 0.00 | 0.00 | 0.00 | 34 | 1013.5 |
| 20260502183857 | 22 | 174 | 4.8 | 12.9 | 0.00 | 0.00 | 0.00 | 33 | 1013.5 |
| 20260502183353 | 22 | 178 | 6.4 | 12.9 | 0.00 | 0.00 | 0.00 | 32 | 1013.5 |
| 20260502182852 | 22 | 182 | 6.4 | 11.3 | 0.00 | 0.00 | 0.00 | 32 | 1013.5 |
| 20260502182354 | 22 | 161 | 4.8 | 11.3 | 0.00 | 0.00 | 0.00 | 32 | 1013.5 |
| 20260502181854 | 23 | 175 | 4.8 | 11.3 | 0.00 | 0.00 | 0.00 | 30 | 1013.4 |
| 20260502181353 | 23 | 181 | 3.2 | 9.7 | 0.00 | 0.00 | 0.00 | 30 | 1013.4 |
| 20260502181151 | 23 | 196 | 3.2 | 11.3 | 0.00 | 0.00 | 0.00 | 31 | 1013.4 |
| 20260502180353 | 23 | 200 | 4.8 | 11.3 | 0.00 | 0.00 | 0.00 | 31 | 1013.5 |
| 20260502170338 | 26 | 190 | 9.7 | 16.1 | 0.00 | 0.00 | 0.00 | 32 | 1013.4 |
| 20260502164336 | 26 | 192 | 8.0 | 16.1 | 0.00 | 0.00 | 0.00 | 32 | 1013.6 |
| 20260502163837 | 26 | 208 | 8.0 | 16.1 | 0.00 | 0.00 | 0.00 | 33 | 1013.7 |
| 20260502163337 | 26 | 146 | 9.7 | 16.1 | 0.00 | 0.00 | 0.00 | 32 | 1013.7 |
| 20260502162838 | 25 | 180 | 11.3 | 19.3 | 0.00 | 0.00 | 0.00 | 32 | 1013.8 |
| 20260502162336 | 25 | 173 | 11.3 | 19.3 | 0.00 | 0.00 | 0.00 | 32 | 1013.8 |
| 20260502161837 | 26 | 190 | 11.3 | 19.3 | 0.00 | 0.00 | 0.00 | 31 | 1014.0 |
| 20260502161336 | 26 | 193 | 12.9 | 20.9 | 0.00 | 0.00 | 0.00 | 31 | 1014.1 |
| 20260502161140 | 26 | 146 | 16.1 | 30.6 | 0.00 | 0.00 | 0.00 | 31 | 1014.1 |
| 20260502160336 | 26 | 173 | 16.1 | 30.6 | 0.00 | 0.00 | 0.00 | 30 | 1014.1 |
| 20260502152321 | 26 | 207 | 12.9 | 24.1 | 0.00 | 0.00 | 0.00 | 28 | 1014.5 |
| 20260502151825 | 26 | 178 | 14.5 | 32.2 | 0.00 | 0.00 | 0.00 | 27 | 1014.6 |
| 20260502151320 | 26 | 115 | 14.5 | 32.2 | 0.00 | 0.00 | 0.00 | 25 | 1014.7 |
| 20260502151138 | 26 | 204 | 12.9 | 25.7 | 0.00 | 0.00 | 0.00 | 29 | 1014.7 |
| 20260502150322 | 25 | 205 | 14.5 | 25.7 | 0.00 | 0.00 | 0.00 | 31 | 1014.8 |
| 20260502130556 | 25 | 209 | 12.9 | 29.0 | 0.00 | 0.00 | 0.00 | 43 | 1016.4 |
| 20260502130550 | 24 | 227 | 12.9 | 29.0 | 0.00 | 0.00 | 0.00 | 44 | 1016.5 |
| 20260502130443 | 25 | 283 | 9.7 | 19.3 | 0.00 | 0.00 | 0.00 | 44 | 1016.3 |
| 20260502123801 | 25 | 194 | 12.9 | 20.9 | 0.00 | 0.00 | 0.00 | 44 | 1016.8 |
| 20260502123303 | 25 | 157 | 9.7 | 20.9 | 0.00 | 0.00 | 0.00 | 43 | 1016.9 |
| 20260502122800 | 25 | 161 | 11.3 | 25.7 | 0.00 | 0.00 | 0.00 | 47 | 1016.9 |
| 20260502122305 | 24 | 171 | 11.3 | 25.7 | 0.00 | 0.00 | 0.00 | 45 | 1017.0 |
| 20260502121802 | 24 | 191 | 11.3 | 22.5 | 0.00 | 0.00 | 0.00 | 47 | 1017.0 |
| 20260502121301 | 23 | 180 | 12.9 | 22.5 | 0.00 | 0.00 | 0.00 | 48 | 1017.1 |
| 20260502120801 | 23 | 225 | 12.9 | 22.5 | 0.00 | 0.00 | 0.00 | 46 | 1017.1 |
| 20260502120308 | 24 | 269 | 12.9 | 25.7 | 0.00 | 0.00 | 0.00 | 45 | 1017.2 |
| 20260502115800 | 25 | 194 | 11.3 | 25.7 | 0.00 | 0.00 | 0.00 | 46 | 1017.3 |
| 20260502115305 | 24 | 182 | 11.3 | 20.9 | 0.00 | 0.00 | 0.00 | 47 | 1017.3 |
| 20260502114800 | 23 | 234 | 9.7 | 20.9 | 0.00 | 0.00 | 0.00 | 48 | 1017.4 |
| 20260502114301 | 23 | 225 | 11.3 | 24.1 | 0.00 | 0.00 | 0.00 | 48 | 1017.5 |
| 20260502113801 | 24 | 132 | 12.9 | 24.1 | 0.00 | 0.00 | 0.00 | 46 | 1017.5 |
| 20260502113302 | 23 | 171 | 9.7 | 22.5 | 0.00 | 0.00 | 0.00 | 47 | 1017.6 |
| 20260502112804 | 23 | 184 | 9.7 | 20.9 | 0.00 | 0.00 | 0.00 | 48 | 1017.6 |
| 20260502112301 | 24 | 179 | 11.3 | 20.9 | 0.00 | 0.00 | 0.00 | 47 | 1017.8 |
| 20260502112108 | 24 | 181 | 11.3 | 22.5 | 0.00 | 0.00 | 0.00 | 47 | 1017.8 |
| 20260502111302 | 23 | 194 | 8.0 | 22.5 | 0.00 | 0.00 | 0.00 | 47 | 1017.9 |
| 20260502110803 | 23 | 219 | 9.7 | 19.3 | 0.00 | 0.00 | 0.00 | 46 | 1018.0 |
| 20260502110616 | 23 | 163 | 11.3 | 19.3 | 0.00 | 0.00 | 0.00 | 47 | 1018.0 |
| 20260502105803 | 23 | 189 | 8.0 | 17.7 | 0.00 | 0.00 | 0.00 | 49 | 1018.0 |
| 20260502105301 | 23 | 232 | 6.4 | 19.3 | 0.00 | 0.00 | 0.00 | 47 | 1018.1 |
| 20260502104802 | 23 | 192 | 8.0 | 19.3 | 0.00 | 0.00 | 0.00 | 46 | 1018.1 |
| 20260502104302 | 23 | 221 | 8.0 | 16.1 | 0.00 | 0.00 | 0.00 | 46 | 1018.1 |
| 20260502103801 | 23 | 209 | 4.8 | 16.1 | 0.00 | 0.00 | 0.00 | 46 | 1018.2 |
| 20260502103407 | 23 | 180 | 8.0 | 17.7 | 0.00 | 0.00 | 0.00 | 48 | 1018.3 |
| 20260502103345 | 22 | 322 | 4.8 | 12.9 | 0.00 | 0.00 | 0.00 | 48 | 1018.2 |
| 20260502102306 | 23 | 194 | 8.0 | 17.7 | 0.00 | 0.00 | 0.00 | 48 | 1018.3 |
| 20260502101754 | 23 | 203 | 8.0 | 16.1 | 0.00 | 0.00 | 0.00 | 46 | 1018.4 |
| 20260502101410 | 23 | 155 | 9.7 | 20.9 | 0.00 | 0.00 | 0.00 | 48 | 1018.5 |
| 20260502101343 | 23 | 196 | 9.7 | 19.3 | 0.00 | 0.00 | 0.00 | 47 | 1018.4 |
| 20260502100252 | 22 | 109 | 8.0 | 20.9 | 0.00 | 0.00 | 0.00 | 47 | 1018.5 |
| 20260502091250 | 19 | 253 | 6.4 | 11.3 | 0.00 | 0.00 | 0.00 | 53 | 1019.0 |
| 20260502091100 | 19 | 199 | 6.4 | 14.5 | 0.00 | 0.00 | 0.00 | 53 | 1019.0 |
| 20260502090251 | 19 | 196 | 6.4 | 14.5 | 0.00 | 0.00 | 0.00 | 54 | 1019.1 |
| 20260502071513 | 13 | 98 | 0.0 | 3.2 | 0.00 | 0.00 | 0.00 | 60 | 1019.8 |
| 20260502070711 | 12 | 98 | 0.0 | 3.2 | 0.00 | 0.00 | 0.00 | 61 | 1019.9 |
| 20260502070513 | 12 | 98 | 1.6 | 6.4 | 0.00 | 0.00 | 0.00 | 62 | 1019.9 |
| 20260502065711 | 12 | 98 | 1.6 | 6.4 | 0.00 | 0.00 | 0.00 | 63 | 1019.8 |
| 20260502065209 | 11 | 98 | 1.6 | 3.2 | 0.00 | 0.00 | 0.00 | 67 | 1019.8 |
| 20260502064703 | 11 | 98 | 1.6 | 3.2 | 0.00 | 0.00 | 0.00 | 69 | 1019.8 |
| 20260502064203 | 11 | 98 | 1.6 | 3.2 | 0.00 | 0.00 | 0.00 | 69 | 1019.8 |
| 20260502063704 | 10 | 98 | 1.6 | 3.2 | 0.00 | 0.00 | 0.00 | 70 | 1019.8 |
| 20260502063204 | 10 | 98 | 0.0 | 1.6 | 0.00 | 0.00 | 0.00 | 70 | 1019.9 |
| 20260502062703 | 10 | 98 | 0.0 | 1.6 | 0.00 | 0.00 | 0.00 | 71 | 1019.9 |
| 20260502062202 | 10 | 98 | 0.0 | 0.0 | 0.00 | 0.00 | 0.00 | 72 | 1019.9 |
| 20260502061701 | 9 | 98 | 0.0 | 3.2 | 0.00 | 0.00 | 0.00 | 73 | 1020.0 |
| 20260502061211 | 8 | 98 | 0.0 | 3.2 | 0.00 | 0.00 | 0.00 | 75 | 1019.9 |
| 20260502060704 | 8 | 98 | 0.0 | 1.6 | 0.00 | 0.00 | 0.00 | 76 | 1019.9 |
| 20260502060204 | 8 | 98 | 0.0 | 0.0 | 0.00 | 0.00 | 0.00 | 77 | 1019.8 |
| 20260502055959 | 7 | 98 | 0.0 | 0.0 | 0.00 | 0.00 | 0.00 | 77 | 1019.9 |
| 20260502055202 | 7 | 98 | 0.0 | 0.0 | 0.00 | 0.00 | 0.00 | 78 | 1019.9 |
| 20260502054701 | 7 | 98 | 0.0 | 0.0 | 0.00 | 0.00 | 0.00 | 78 | 1019.9 |
| 20260502054202 | 7 | 98 | 0.0 | 0.0 | 0.00 | 0.00 | 0.00 | 78 | 1019.9 |
| 20260502053702 | 7 | 98 | 0.0 | 0.0 | 0.00 | 0.00 | 0.00 | 78 | 1019.9 |
| 20260502053202 | 6 | 98 | 0.0 | 0.0 | 0.00 | 0.00 | 0.00 | 79 | 1020.0 |
| 20260502052702 | 6 | 98 | 0.0 | 0.0 | 0.00 | 0.00 | 0.00 | 79 | 1020.0 |
| 20260502052202 | 6 | 98 | 0.0 | 0.0 | 0.00 | 0.00 | 0.00 | 79 | 1020.0 |
| 20260502051704 | 6 | 98 | 0.0 | 1.6 | 0.00 | 0.00 | 0.00 | 80 | 1019.9 |
| 20260502051203 | 6 | 98 | 0.0 | 3.2 | 0.00 | 0.00 | 0.00 | 81 | 1019.8 |
| 20260502050652 | 5 | 98 | 0.0 | 3.2 | 0.00 | 0.00 | 0.00 | 82 | 1019.9 |
| 20260502050446 | 5 | 98 | 0.0 | 1.6 | 0.00 | 0.00 | 0.00 | 82 | 1019.8 |
| 20260502045941 | 5 | 98 | 0.0 | 0.0 | 0.00 | 0.00 | 0.00 | 82 | 1019.7 |
| 20260502045132 | 5 | 98 | 0.0 | 0.0 | 0.00 | 0.00 | 0.00 | 82 | 1019.6 |
| 20260502044916 | 5 | 98 | 0.0 | 0.0 | 0.00 | 0.00 | 0.00 | 82 | 1019.7 |
| 20260502044418 | 5 | 98 | 0.0 | 0.0 | 0.00 | 0.00 | 0.00 | 82 | 1019.7 |
| 20260502043611 | 5 | 98 | 0.0 | 0.0 | 0.00 | 0.00 | 0.00 | 82 | 1019.7 |
| 20260502043104 | 5 | 98 | 0.0 | 0.0 | 0.00 | 0.00 | 0.00 | 82 | 1019.6 |
| 20260502042554 | 5 | 98 | 0.0 | 0.0 | 0.00 | 0.00 | 0.00 | 83 | 1019.6 |
| 20260502042213 | 5 | 98 | 0.0 | 0.0 | 0.00 | 0.00 | 0.00 | 82 | 1019.6 |
| 20260502042140 | 5 | 98 | 0.0 | 0.0 | 0.00 | 0.00 | 0.00 | 82 | 1019.6 |
| 20260502041312 | 5 | 98 | 0.0 | 3.2 | 0.00 | 0.00 | 0.00 | 82 | 1019.6 |
| 20260502041233 | 5 | 98 | 0.0 | 0.0 | 0.00 | 0.00 | 0.00 | 82 | 1019.6 |
| 20260502040644 | 5 | 98 | 0.0 | 0.0 | 0.00 | 0.00 | 0.00 | 83 | 1019.6 |
| 20260502035542 | 5 | 98 | 0.0 | 3.2 | 0.00 | 0.00 | 0.00 | 82 | 1019.6 |
| 20260502035042 | 5 | 98 | 0.0 | 3.2 | 0.00 | 0.00 | 0.00 | 82 | 1019.6 |
| 20260502034541 | 5 | 98 | 0.0 | 0.0 | 0.00 | 0.00 | 0.00 | 82 | 1019.7 |
| 20260502034040 | 5 | 98 | 0.0 | 0.0 | 0.00 | 0.00 | 0.00 | 82 | 1019.7 |
| 20260502033539 | 5 | 98 | 0.0 | 0.0 | 0.00 | 0.00 | 0.00 | 82 | 1019.7 |
| 20260502033038 | 5 | 98 | 0.0 | 1.6 | 0.00 | 0.00 | 0.00 | 82 | 1019.7 |
| 20260502032537 | 5 | 98 | 0.0 | 1.6 | 0.00 | 0.00 | 0.00 | 82 | 1019.8 |
| 20260502032144 | 5 | 98 | 0.0 | 0.0 | 0.00 | 0.00 | 0.00 | 81 | 1019.7 |
| 20260502032122 | 5 | 98 | 0.0 | 0.0 | 0.00 | 0.00 | 0.00 | 82 | 1019.7 |
| 20260502031032 | 5 | 98 | 0.0 | 0.0 | 0.00 | 0.00 | 0.00 | 81 | 1019.6 |
| 20260502030531 | 5 | 98 | 0.0 | 0.0 | 0.00 | 0.00 | 0.00 | 80 | 1019.6 |
| 20260502030030 | 5 | 98 | 0.0 | 0.0 | 0.00 | 0.00 | 0.00 | 81 | 1019.6 |
| 20260502025530 | 5 | 98 | 0.0 | 0.0 | 0.00 | 0.00 | 0.00 | 81 | 1019.8 |
| 20260502025320 | 5 | 98 | 0.0 | 0.0 | 0.00 | 0.00 | 0.00 | 81 | 1019.7 |
| 20260502024530 | 5 | 98 | 0.0 | 0.0 | 0.00 | 0.00 | 0.00 | 80 | 1019.6 |
| 20260502024029 | 5 | 98 | 0.0 | 0.0 | 0.00 | 0.00 | 0.00 | 79 | 1019.7 |
| 20260502023819 | 5 | 98 | 0.0 | 0.0 | 0.00 | 0.00 | 0.00 | 81 | 1019.8 |
| 20260502023030 | 5 | 98 | 0.0 | 0.0 | 0.00 | 0.00 | 0.00 | 80 | 1019.8 |
| 20260502022531 | 5 | 98 | 0.0 | 0.0 | 0.00 | 0.00 | 0.00 | 80 | 1019.7 |
| 20260502022029 | 5 | 98 | 0.0 | 0.0 | 0.00 | 0.00 | 0.00 | 80 | 1019.7 |
| 20260502021529 | 5 | 98 | 0.0 | 0.0 | 0.00 | 0.00 | 0.00 | 80 | 1019.7 |
| 20260502021321 | 5 | 98 | 0.0 | 0.0 | 0.00 | 0.00 | 0.00 | 80 | 1019.7 |
| 20260502020530 | 5 | 98 | 0.0 | 0.0 | 0.00 | 0.00 | 0.00 | 80 | 1019.7 |
| 20260502020030 | 6 | 98 | 0.0 | 0.0 | 0.00 | 0.00 | 0.00 | 80 | 1019.7 |
| 20260502015529 | 5 | 98 | 0.0 | 0.0 | 0.00 | 0.00 | 0.00 | 80 | 1019.7 |
| 20260502015121 | 6 | 98 | 0.0 | 0.0 | 0.00 | 0.00 | 0.00 | 79 | 1019.8 |
| 20260502015104 | 6 | 98 | 0.0 | 0.0 | 0.00 | 0.00 | 0.00 | 79 | 1019.7 |
| 20260502014033 | 6 | 98 | 0.0 | 0.0 | 0.00 | 0.00 | 0.00 | 79 | 1019.8 |
| 20260502013530 | 6 | 98 | 0.0 | 0.0 | 0.00 | 0.00 | 0.00 | 79 | 1019.8 |
| 20260502013312 | 6 | 98 | 0.0 | 0.0 | 0.00 | 0.00 | 0.00 | 79 | 1019.8 |
| 20260502012531 | 6 | 98 | 0.0 | 0.0 | 0.00 | 0.00 | 0.00 | 79 | 1019.8 |
| 20260502012030 | 6 | 98 | 0.0 | 0.0 | 0.00 | 0.00 | 0.00 | 79 | 1019.8 |
| 20260502011832 | 6 | 98 | 0.0 | 0.0 | 0.00 | 0.00 | 0.00 | 78 | 1019.7 |
| 20260502011023 | 6 | 98 | 0.0 | 0.0 | 0.00 | 0.00 | 0.00 | 79 | 1019.8 |
| 20260502010517 | 6 | 98 | 0.0 | 0.0 | 0.00 | 0.00 | 0.00 | 78 | 1019.9 |
| 20260502010016 | 6 | 98 | 0.0 | 0.0 | 0.00 | 0.00 | 0.00 | 78 | 1019.9 |
| 20260502005512 | 6 | 98 | 0.0 | 0.0 | 0.00 | 0.00 | 0.00 | 77 | 1019.9 |
| 20260502005013 | 6 | 98 | 0.0 | 0.0 | 0.00 | 0.00 | 0.00 | 77 | 1019.9 |
| 20260502004511 | 6 | 98 | 0.0 | 0.0 | 0.00 | 0.00 | 0.00 | 77 | 1020.0 |
| 20260502004008 | 6 | 98 | 0.0 | 0.0 | 0.00 | 0.00 | 0.00 | 77 | 1020.0 |
| 20260502003504 | 6 | 98 | 0.0 | 0.0 | 0.00 | 0.00 | 0.00 | 76 | 1020.0 |
| 20260502003006 | 7 | 98 | 0.0 | 0.0 | 0.00 | 0.00 | 0.00 | 76 | 1020.1 |
| 20260502002758 | 7 | 98 | 0.0 | 0.0 | 0.00 | 0.00 | 0.00 | 77 | 1020.1 |
| 20260502002002 | 6 | 98 | 0.0 | 0.0 | 0.00 | 0.00 | 0.00 | 77 | 1020.1 |
| 20260502001502 | 7 | 98 | 0.0 | 0.0 | 0.00 | 0.00 | 0.00 | 77 | 1020.1 |
| 20260502001001 | 7 | 98 | 0.0 | 0.0 | 0.00 | 0.00 | 0.00 | 76 | 1020.1 |
| 20260502000503 | 7 | 98 | 0.0 | 0.0 | 0.00 | 0.00 | 0.00 | 76 | 1020.1 |
| 20260502000002 | 7 | 98 | 0.0 | 0.0 | 0.00 | 0.00 | 0.00 | 76 | 1020.2 |
| 20260501235502 | 7 | 98 | 0.0 | 0.0 | 0.00 | 0.00 | 0.00 | 75 | 1020.2 |
| 20260501235002 | 7 | 98 | 0.0 | 0.0 | 0.00 | 0.00 | 0.00 | 75 | 1020.3 |
| 20260501234502 | 7 | 98 | 0.0 | 0.0 | 0.00 | 0.00 | 0.00 | 75 | 1020.3 |
| 20260501234002 | 7 | 98 | 0.0 | 0.0 | 0.00 | 0.00 | 0.00 | 75 | 1020.3 |
| 20260501233758 | 7 | 98 | 0.0 | 0.0 | 0.00 | 0.00 | 0.00 | 75 | 1020.3 |
| 20260501233001 | 7 | 98 | 0.0 | 0.0 | 0.00 | 0.00 | 0.00 | 74 | 1020.3 |
| 20260501232455 | 7 | 98 | 0.0 | 0.0 | 0.00 | 0.00 | 0.00 | 73 | 1020.3 |